Time;durP1;ratioP1;P1;durP2;ratioP2;P2;SDS_P1;SDS_P2;PMS_P1;PMS_P2;Temp;Humidity;BMP_temperature;BMP_pressure;BME280_temperature;BME280_humidity;BME280_pressure;Samples;Min_cycle;Max_cycle;Signal;HPM_P1;HPM_P2
2022/04/23 00:02:13;;;;;;;6.90;3.28;;;;;;;;;;4900625;29;20033;-76
2022/04/23 00:04:40;;;;;;;7.68;3.40;;;;;;;;;;4899861;29;20080;-76
2022/04/23 00:07:06;;;;;;;9.43;3.60;;;;;;;;;;4899333;29;20025;-75
2022/04/23 00:09:32;;;;;;;8.27;3.55;;;;;;;;;;4899212;29;20028;-75
2022/04/23 00:11:59;;;;;;;6.95;4.30;;;;;;;;;;4898186;29;20052;-75
2022/04/23 00:14:26;;;;;;;11.32;5.90;;;;;;;;;;4900170;29;20113;-75
2022/04/23 00:16:53;;;;;;;14.68;6.65;;;;;;;;;;4898829;29;20075;-75
2022/04/23 00:19:19;;;;;;;16.50;7.13;;;;;;;;;;4899447;29;20391;-75
2022/04/23 00:21:45;;;;;;;18.33;7.70;;;;;;;;;;4899802;29;20041;-75
2022/04/23 00:24:12;;;;;;;14.88;6.32;;;;;;;;;;4899503;29;20029;-75
2022/04/23 00:26:39;;;;;;;12.70;5.30;;;;;;;;;;4899752;29;20376;-74
2022/04/23 00:29:06;;;;;;;10.60;5.28;;;;;;;;;;4899527;29;20040;-76
2022/04/23 00:31:32;;;;;;;11.98;5.72;;;;;;;;;;4898326;29;20041;-76
2022/04/23 00:33:58;;;;;;;10.32;4.93;;;;;;;;;;4897974;29;20036;-75
2022/04/23 00:36:24;;;;;;;8.18;4.38;;;;;;;;;;4899162;29;20039;-75
2022/04/23 00:38:52;;;;;;;8.82;4.70;;;;;;;;;;4899154;29;20024;-74
2022/04/23 00:44:04;;;;;;;8.30;4.50;;;;;;;;;;4886909;29;20048;-75
2022/04/23 00:46:30;;;;;;;9.95;4.30;;;;;;;;;;4898881;29;20115;-75
2022/04/23 00:48:58;;;;;;;7.35;4.45;;;;;;;;;;4898965;29;20115;-75
2022/04/23 00:51:25;;;;;;;8.15;4.80;;;;;;;;;;4896313;29;20056;-75
2022/04/23 00:53:51;;;;;;;8.00;4.20;;;;;;;;;;4899582;29;20029;-75
2022/04/23 00:56:17;;;;;;;7.05;4.20;;;;;;;;;;4898131;29;20115;-75
2022/04/23 00:58:44;;;;;;;8.98;4.40;;;;;;;;;;4896922;29;20032;-75
2022/04/23 01:01:10;;;;;;;8.52;3.95;;;;;;;;;;4898117;29;20113;-75
2022/04/23 01:03:36;;;;;;;8.15;3.60;;;;;;;;;;4898004;29;20470;-75
2022/04/23 01:06:04;;;;;;;7.70;4.20;;;;;;;;;;4898546;29;20407;-75
2022/04/23 01:08:31;;;;;;;9.23;4.13;;;;;;;;;;4897497;29;20474;-75
2022/04/23 01:10:57;;;;;;;7.95;4.03;;;;;;;;;;4896495;29;20418;-75
2022/04/23 01:13:26;;;;;;;9.02;3.88;;;;;;;;;;4897378;29;20067;-74
2022/04/23 01:16:07;;;;;;;6.80;3.67;;;;;;;;;;4899048;29;20148;-74
2022/04/23 01:18:33;;;;;;;8.43;3.85;;;;;;;;;;4886029;29;20028;-75
2022/04/23 01:21:00;;;;;;;9.13;4.65;;;;;;;;;;4898669;29;20088;-75
2022/04/23 01:23:26;;;;;;;8.10;4.70;;;;;;;;;;4897907;29;20036;-75
2022/04/23 01:25:55;;;;;;;8.82;4.55;;;;;;;;;;4880650;29;20059;-74
2022/04/23 01:28:22;;;;;;;9.02;5.50;;;;;;;;;;4898446;29;20059;-75
2022/04/23 01:30:49;;;;;;;10.00;5.80;;;;;;;;;;4897159;29;20459;-75
2022/04/23 01:33:15;;;;;;;11.40;5.93;;;;;;;;;;4897123;29;20028;-75
2022/04/23 01:35:41;;;;;;;10.70;6.03;;;;;;;;;;4897558;29;20033;-75
2022/04/23 01:38:07;;;;;;;8.20;5.78;;;;;;;;;;4898124;29;20088;-75
2022/04/23 01:40:34;;;;;;;12.35;5.28;;;;;;;;;;4896412;29;20043;-74
2022/04/23 01:43:00;;;;;;;7.47;4.28;;;;;;;;;;4898451;29;20087;-75
2022/04/23 01:45:26;;;;;;;13.13;4.70;;;;;;;;;;4897744;29;20493;-75
2022/04/23 01:47:52;;;;;;;6.75;4.53;;;;;;;;;;4897176;29;20029;-75
2022/04/23 01:50:18;;;;;;;9.30;4.88;;;;;;;;;;4897674;29;20175;-75
2022/04/23 01:52:44;;;;;;;8.90;4.80;;;;;;;;;;4897691;29;20112;-75
2022/04/23 01:55:10;;;;;;;9.35;4.95;;;;;;;;;;4897387;29;20043;-76
2022/04/23 01:57:36;;;;;;;12.68;5.00;;;;;;;;;;4896361;29;20024;-75
2022/04/23 02:00:05;;;;;;;12.93;5.18;;;;;;;;;;4898386;29;20267;-76
2022/04/23 02:02:31;;;;;;;9.23;4.90;;;;;;;;;;4896954;29;20487;-74
2022/04/23 02:04:58;;;;;;;9.45;5.25;;;;;;;;;;4897183;29;20060;-75
2022/04/23 02:07:24;;;;;;;10.82;5.70;;;;;;;;;;4897364;29;20112;-75
2022/04/23 02:09:54;;;;;;;12.68;5.97;;;;;;;;;;4880259;29;20028;-75
2022/04/23 02:12:20;;;;;;;10.18;6.05;;;;;;;;;;4894571;29;20045;-75
2022/04/23 02:14:48;;;;;;;9.40;6.13;;;;;;;;;;4897586;29;20035;-74
2022/04/23 02:17:14;;;;;;;13.10;6.28;;;;;;;;;;4897213;29;20052;-75
2022/04/23 02:19:41;;;;;;;10.73;6.47;;;;;;;;;;4897604;29;20021;-75
2022/04/23 02:22:07;;;;;;;11.68;5.75;;;;;;;;;;4896440;29;20040;-75
2022/04/23 02:24:34;;;;;;;9.63;5.95;;;;;;;;;;4897394;29;20076;-75
2022/04/23 02:27:00;;;;;;;11.27;6.03;;;;;;;;;;4898176;29;20487;-75
2022/04/23 02:29:28;;;;;;;9.43;5.20;;;;;;;;;;4897924;29;20382;-75
2022/04/23 02:31:54;;;;;;;8.73;4.90;;;;;;;;;;4897999;29;20578;-75
2022/04/23 02:34:22;;;;;;;7.72;4.50;;;;;;;;;;4896898;29;20531;-75
2022/04/23 02:36:48;;;;;;;5.93;4.00;;;;;;;;;;4895038;29;20069;-74
2022/04/23 02:39:14;;;;;;;8.30;4.22;;;;;;;;;;4896906;29;20039;-75
2022/04/23 02:41:41;;;;;;;10.88;4.70;;;;;;;;;;4897170;29;20537;-75
2022/04/23 02:44:09;;;;;;;6.88;3.67;;;;;;;;;;4897042;29;20380;-75
2022/04/23 02:46:35;;;;;;;10.05;3.70;;;;;;;;;;4897959;29;20020;-75
2022/04/23 02:49:02;;;;;;;7.30;3.33;;;;;;;;;;4897352;29;20032;-75
2022/04/23 02:51:28;;;;;;;7.00;3.40;;;;;;;;;;4897489;29;20131;-75
2022/04/23 02:53:54;;;;;;;8.45;3.53;;;;;;;;;;4896797;29;20043;-75
2022/04/23 02:56:20;;;;;;;7.13;3.70;;;;;;;;;;4895883;29;20031;-75
2022/04/23 02:58:46;;;;;;;15.48;4.60;;;;;;;;;;4897257;29;20064;-75
2022/04/23 03:01:14;;;;;;;9.00;3.78;;;;;;;;;;4896432;29;20435;-75
2022/04/23 03:03:41;;;;;;;6.65;3.50;;;;;;;;;;4897315;29;20057;-75
2022/04/23 03:06:07;;;;;;;6.90;3.58;;;;;;;;;;4896543;29;20506;-75
2022/04/23 03:08:37;;;;;;;6.82;3.78;;;;;;;;;;4897212;29;20501;-75
2022/04/23 03:11:03;;;;;;;7.38;3.22;;;;;;;;;;4897095;29;20491;-75
2022/04/23 03:13:29;;;;;;;7.28;3.60;;;;;;;;;;4880281;29;20054;-75
2022/04/23 03:15:56;;;;;;;9.75;3.60;;;;;;;;;;4894597;29;20029;-74
2022/04/23 03:18:26;;;;;;;8.00;3.20;;;;;;;;;;4897551;29;20116;-75
2022/04/23 03:20:55;;;;;;;11.55;3.50;;;;;;;;;;4900391;29;20031;-75
2022/04/23 03:23:21;;;;;;;8.60;3.30;;;;;;;;;;4900556;29;20045;-74
2022/04/23 03:25:48;;;;;;;11.52;3.97;;;;;;;;;;4899354;29;20032;-75
2022/04/23 03:28:14;;;;;;;9.52;3.60;;;;;;;;;;4897120;29;20036;-75
2022/04/23 03:31:12;;;;;;;19.67;4.00;;;;;;;;;;4912740;29;20063;-80
2022/04/23 03:33:40;;;;;;;8.40;3.42;;;;;;;;;;4898381;29;20045;-75
2022/04/23 03:36:06;;;;;;;11.40;3.50;;;;;;;;;;4900065;29;20028;-75
2022/04/23 03:38:35;;;;;;;19.10;15.25;;;;;;;;;;4900436;29;20021;-75
2022/04/23 03:41:02;;;;;;;24.77;17.85;;;;;;;;;;4897974;29;20036;-75
2022/04/23 03:43:30;;;;;;;18.40;11.82;;;;;;;;;;4899040;29;20029;-75
2022/04/23 03:45:56;;;;;;;11.55;5.18;;;;;;;;;;4900809;29;20029;-75
2022/04/23 03:48:24;;;;;;;10.63;3.80;;;;;;;;;;4900572;29;20147;-75
2022/04/23 03:50:53;;;;;;;9.05;2.90;;;;;;;;;;4898116;29;20080;-76
2022/04/23 03:53:19;;;;;;;7.47;2.90;;;;;;;;;;4879591;29;20035;-76
2022/04/23 03:55:45;;;;;;;5.20;2.97;;;;;;;;;;4899548;29;20035;-75
2022/04/23 03:58:12;;;;;;;13.40;3.33;;;;;;;;;;4899983;29;20036;-76
2022/04/23 04:00:42;;;;;;;12.02;3.10;;;;;;;;;;4900707;29;20032;-76
2022/04/23 04:42:32;;;;;;;8.38;4.00;;;;;;;;;;4989692;23;20056;-71
2022/04/23 04:45:08;;;;;;;8.55;3.80;;;;;;;;;;4897099;29;20040;-73
2022/04/23 04:47:34;;;;;;;7.63;3.67;;;;;;;;;;4919686;29;20032;-73
2022/04/23 04:50:01;;;;;;;8.20;3.63;;;;;;;;;;4916706;29;20024;-77
2022/04/23 04:58:10;;;;;;;6.65;3.50;;;;;;;;;;5052681;23;20062;-73
2022/04/23 05:00:36;;;;;;;7.88;3.53;;;;;;;;;;4928621;29;20043;-73
2022/04/23 05:03:02;;;;;;;8.65;3.70;;;;;;;;;;4934683;29;20034;-73
2022/04/23 05:05:28;;;;;;;8.05;3.80;;;;;;;;;;4954773;29;20059;-73
2022/04/23 05:07:54;;;;;;;9.68;4.57;;;;;;;;;;4949445;29;20028;-73
2022/04/23 05:10:20;;;;;;;10.85;5.45;;;;;;;;;;4949090;29;20024;-73
2022/04/23 05:12:46;;;;;;;9.73;5.97;;;;;;;;;;4952407;29;20047;-73
2022/04/23 05:15:12;;;;;;;14.63;8.40;;;;;;;;;;4953797;29;20036;-73
2022/04/23 05:17:40;;;;;;;13.85;7.53;;;;;;;;;;4933655;29;20111;-74
2022/04/23 05:20:07;;;;;;;11.45;5.68;;;;;;;;;;4944847;29;20032;-71
2022/04/23 05:22:35;;;;;;;10.20;5.63;;;;;;;;;;4944550;29;20394;-71
2022/04/23 05:25:01;;;;;;;13.98;6.05;;;;;;;;;;4930143;29;20521;-71
2022/04/23 05:27:28;;;;;;;14.95;7.38;;;;;;;;;;4946491;29;20083;-71
2022/04/23 05:29:54;;;;;;;10.68;7.05;;;;;;;;;;4945688;29;20035;-70
2022/04/23 05:32:20;;;;;;;14.55;7.28;;;;;;;;;;4947201;29;20035;-70
2022/04/23 05:34:46;;;;;;;13.73;8.00;;;;;;;;;;4930849;29;20036;-71
2022/04/23 05:37:12;;;;;;;13.77;8.00;;;;;;;;;;4927138;29;20067;-71
2022/04/23 05:39:38;;;;;;;12.63;8.13;;;;;;;;;;4928650;29;20397;-71
2022/04/23 05:42:04;;;;;;;19.38;8.93;;;;;;;;;;4933805;29;20506;-71
2022/04/23 05:44:30;;;;;;;15.23;8.80;;;;;;;;;;4931452;29;20032;-71
2022/04/23 05:46:56;;;;;;;13.77;9.80;;;;;;;;;;4939483;29;20027;-71
2022/04/23 05:49:22;;;;;;;14.27;9.98;;;;;;;;;;4942994;29;20497;-73
2022/04/23 05:51:48;;;;;;;15.38;10.60;;;;;;;;;;4942517;29;20047;-71
2022/04/23 05:54:14;;;;;;;16.73;10.55;;;;;;;;;;4945845;29;20034;-70
2022/04/23 05:56:40;;;;;;;13.32;9.80;;;;;;;;;;4946291;29;20054;-71
2022/04/23 05:59:06;;;;;;;22.77;14.88;;;;;;;;;;4948751;29;20035;-73
2022/04/23 06:01:32;;;;;;;20.75;10.43;;;;;;;;;;4940804;29;20053;-72
2022/04/23 06:03:58;;;;;;;16.00;10.82;;;;;;;;;;4945077;29;20036;-77
2022/04/23 06:06:24;;;;;;;17.00;10.25;;;;;;;;;;4949276;29;20024;-75
2022/04/23 06:09:10;;;;;;;15.15;10.98;;;;;;;;;;4947854;29;20036;-77
2022/04/23 06:11:49;;;;;;;18.65;12.40;;;;;;;;;;4949448;29;20015;-77
2022/04/23 06:14:19;;;;;;;14.60;11.35;;;;;;;;;;4949714;29;20020;-71
2022/04/23 06:16:45;;;;;;;15.43;11.20;;;;;;;;;;4953224;28;20064;-75
2022/04/23 06:19:13;;;;;;;16.33;11.90;;;;;;;;;;4952939;29;20031;-74
2022/04/23 06:21:39;;;;;;;14.55;11.52;;;;;;;;;;4944969;29;20020;-72
2022/04/23 06:24:30;;;;;;;17.80;12.55;;;;;;;;;;4949453;29;20062;-80
2022/04/23 06:26:59;;;;;;;18.88;12.57;;;;;;;;;;4954398;28;20048;-72
2022/04/23 06:29:25;;;;;;;17.92;13.45;;;;;;;;;;4945996;29;20070;-74
2022/04/23 06:31:51;;;;;;;17.38;12.95;;;;;;;;;;4934730;29;20119;-74
2022/04/23 06:34:18;;;;;;;20.70;14.00;;;;;;;;;;4941311;29;20020;-78
2022/04/23 06:37:05;;;;;;;17.85;13.32;;;;;;;;;;4947342;29;20031;-78
2022/04/23 06:39:31;;;;;;;18.08;12.82;;;;;;;;;;4945028;29;20024;-76
2022/04/23 06:42:01;;;;;;;19.88;12.20;;;;;;;;;;4948914;29;20027;-75
2022/04/23 06:44:27;;;;;;;15.30;12.52;;;;;;;;;;4943546;29;20027;-77
2022/04/23 06:46:53;;;;;;;21.13;14.57;;;;;;;;;;4944758;29;20032;-72
2022/04/23 06:49:19;;;;;;;22.40;16.35;;;;;;;;;;4935554;29;20030;-69
2022/04/23 06:51:45;;;;;;;22.20;16.75;;;;;;;;;;4932484;29;20035;-69
2022/04/23 06:54:13;;;;;;;23.65;15.30;;;;;;;;;;4935685;29;20054;-74
2022/04/23 06:57:12;;;;;;;19.92;15.45;;;;;;;;;;4939891;29;20754;-80
2022/04/23 07:00:00;;;;;;;18.90;14.75;;;;;;;;;;4921480;29;20044;-77
2022/04/23 07:02:26;;;;;;;20.88;15.57;;;;;;;;;;4924201;29;20394;-78
2022/04/23 07:10:16;;;;;;;21.65;17.75;;;;;;;;;;5453983;23;20121;-78
2022/04/23 07:12:48;;;;;;;25.98;22.40;;;;;;;;;;4882733;29;20197;-76
2022/04/23 07:15:15;;;;;;;34.13;25.70;;;;;;;;;;4924323;29;20023;-75
2022/04/23 07:17:41;;;;;;;31.77;23.73;;;;;;;;;;4921870;29;20064;-78
2022/04/23 07:20:07;;;;;;;26.95;19.60;;;;;;;;;;4926720;29;20059;-74
2022/04/23 07:22:35;;;;;;;31.73;24.63;;;;;;;;;;4937215;29;20018;-81
2022/04/23 07:25:14;;;;;;;28.70;20.80;;;;;;;;;;4935379;29;20020;-79
2022/04/23 07:27:40;;;;;;;47.55;35.85;;;;;;;;;;5030748;23;20410;-78
2022/04/23 07:30:07;;;;;;;34.05;24.13;;;;;;;;;;4909662;29;20111;-73
2022/04/23 07:32:33;;;;;;;33.13;26.33;;;;;;;;;;4922269;29;20035;-72
2022/04/23 07:37:43;;;;;;;28.25;22.10;;;;;;;;;;4897548;29;20513;-72
2022/04/23 07:40:13;;;;;;;31.98;21.08;;;;;;;;;;4900626;29;20071;-78
2022/04/23 07:42:39;;;;;;;23.33;19.65;;;;;;;;;;4903622;29;20489;-76
2022/04/23 07:45:05;;;;;;;33.90;22.90;;;;;;;;;;4910404;29;20035;-77
2022/04/23 07:47:32;;;;;;;27.17;21.20;;;;;;;;;;4911367;29;20032;-77
2022/04/23 07:49:58;;;;;;;25.17;19.67;;;;;;;;;;4907695;29;20025;-74
2022/04/23 07:52:26;;;;;;;24.73;18.65;;;;;;;;;;4897260;29;20044;-69
2022/04/23 07:54:52;;;;;;;21.70;18.50;;;;;;;;;;4895085;29;20053;-72
2022/04/23 07:57:21;;;;;;;23.25;19.30;;;;;;;;;;4898852;29;20028;-69
2022/04/23 07:59:47;;;;;;;26.23;20.10;;;;;;;;;;4903481;29;20037;-69
2022/04/23 08:02:15;;;;;;;23.75;20.65;;;;;;;;;;4902043;29;20033;-69
2022/04/23 08:04:42;;;;;;;25.20;19.05;;;;;;;;;;4897828;29;20168;-69
2022/04/23 08:07:08;;;;;;;22.48;19.20;;;;;;;;;;4900947;29;20025;-69
2022/04/23 08:09:46;;;;;;;25.45;19.13;;;;;;;;;;4921896;29;20020;-81
2022/04/23 08:12:12;;;;;;;27.85;19.52;;;;;;;;;;4906558;29;20101;-80
2022/04/23 08:17:56;;;;;;;26.83;19.30;;;;;;;;;;4923908;29;20047;-80
2022/04/23 08:20:26;;;;;;;23.58;20.05;;;;;;;;;;4900959;29;20123;-73
2022/04/23 08:22:52;;;;;;;24.85;19.10;;;;;;;;;;4895426;29;20103;-75
2022/04/23 08:25:18;;;;;;;24.40;18.83;;;;;;;;;;4898599;29;20115;-73
2022/04/23 08:27:52;;;;;;;26.92;19.55;;;;;;;;;;4896141;29;20048;-74
2022/04/23 08:30:34;;;;;;;25.00;19.23;;;;;;;;;;4897106;29;20496;-73
2022/04/23 08:33:03;;;;;;;25.08;17.95;;;;;;;;;;4895062;29;20072;-73
2022/04/23 08:35:29;;;;;;;23.77;18.45;;;;;;;;;;4895942;29;20029;-74
2022/04/23 08:37:55;;;;;;;23.52;18.70;;;;;;;;;;4895850;29;20033;-71
2022/04/23 08:40:48;;;;;;;27.10;19.08;;;;;;;;;;4895622;29;20029;-77
2022/04/23 08:43:22;;;;;;;21.15;18.35;;;;;;;;;;4913931;29;20035;-78
2022/04/23 08:45:51;;;;;;;22.83;18.05;;;;;;;;;;4906488;29;20041;-77
2022/04/23 08:48:18;;;;;;;29.13;17.80;;;;;;;;;;4888914;29;20051;-74
2022/04/23 08:50:46;;;;;;;21.73;18.15;;;;;;;;;;4899069;29;20044;-72
2022/04/23 08:55:53;;;;;;;20.52;16.13;;;;;;;;;;5491379;23;20068;-78
2022/04/23 08:58:21;;;;;;;18.70;15.95;;;;;;;;;;4917461;29;20016;-78
2022/04/23 09:00:47;;;;;;;18.58;16.35;;;;;;;;;;4931594;29;20493;-77
2022/04/23 09:03:14;;;;;;;21.45;15.43;;;;;;;;;;4911991;29;20060;-78
2022/04/23 09:05:43;;;;;;;22.10;15.80;;;;;;;;;;4915262;29;20032;-79
2022/04/23 09:08:29;;;;;;;22.50;14.95;;;;;;;;;;5128316;23;20058;-78
2022/04/23 09:24:43;;;;;;;23.88;14.43;;;;;;;;;;4907660;29;20047;-73
2022/04/23 09:27:09;;;;;;;17.85;13.63;;;;;;;;;;4905172;29;20498;-74
2022/04/23 09:29:37;;;;;;;16.63;13.63;;;;;;;;;;4887640;29;20116;-74
2022/04/23 09:32:11;;;;;;;16.42;13.82;;;;;;;;;;4886826;29;20025;-73
2022/04/23 09:34:38;;;;;;;17.35;13.95;;;;;;;;;;4902020;29;20103;-74
2022/04/23 09:37:05;;;;;;;20.77;14.00;;;;;;;;;;4906772;29;20036;-73
2022/04/23 09:39:31;;;;;;;17.48;12.32;;;;;;;;;;4906719;29;20025;-74
2022/04/23 09:42:13;;;;;;;19.83;12.35;;;;;;;;;;4901819;29;20028;-73
2022/04/23 09:44:40;;;;;;;19.20;13.65;;;;;;;;;;4902568;29;20441;-74
2022/04/23 09:47:06;;;;;;;16.13;11.98;;;;;;;;;;4904435;29;20033;-73
2022/04/23 09:49:32;;;;;;;21.95;12.93;;;;;;;;;;4887710;29;20028;-74
2022/04/23 09:52:09;;;;;;;17.70;11.43;;;;;;;;;;4906417;29;20020;-74
2022/04/23 09:54:35;;;;;;;15.60;10.85;;;;;;;;;;4892579;29;20032;-73
2022/04/23 09:59:37;;;;;;;15.48;10.20;;;;;;;;;;4921008;26;20044;-75
2022/04/23 10:02:04;;;;;;;15.32;10.30;;;;;;;;;;4944225;29;20099;-73
2022/04/23 10:04:32;;;;;;;15.38;9.77;;;;;;;;;;4934193;29;20032;-74
2022/04/23 10:07:08;;;;;;;13.88;10.00;;;;;;;;;;4941181;29;20026;-77
2022/04/23 10:18:15;;;;;;;12.05;9.88;;;;;;;;;;4924395;29;20043;-71
2022/04/23 10:21:04;;;;;;;17.08;11.73;;;;;;;;;;4919362;29;20048;-70
2022/04/23 10:23:40;;;;;;;14.45;11.07;;;;;;;;;;4921807;29;20032;-71
2022/04/23 10:26:07;;;;;;;15.07;10.18;;;;;;;;;;4920193;29;20035;-71
2022/04/23 10:28:33;;;;;;;13.52;10.30;;;;;;;;;;4911912;29;20039;-71
2022/04/23 10:31:18;;;;;;;16.35;11.35;;;;;;;;;;4928185;29;20486;-70
2022/04/23 10:33:46;;;;;;;19.20;11.60;;;;;;;;;;4923016;29;20055;-70
2022/04/23 10:36:13;;;;;;;15.27;10.40;;;;;;;;;;4927274;29;20047;-71
2022/04/23 10:38:42;;;;;;;13.77;9.82;;;;;;;;;;4908400;29;20024;-71
2022/04/23 10:41:09;;;;;;;15.63;10.10;;;;;;;;;;4909629;29;20029;-71
2022/04/23 10:43:35;;;;;;;14.68;10.07;;;;;;;;;;4906713;29;20072;-70
2022/04/23 10:46:01;;;;;;;14.32;10.25;;;;;;;;;;4909025;29;20386;-71
2022/04/23 10:48:28;;;;;;;13.38;10.45;;;;;;;;;;4906066;29;20096;-70
2022/04/23 10:51:05;;;;;;;25.58;10.90;;;;;;;;;;4908092;29;20028;-71
2022/04/23 10:53:37;;;;;;;14.45;10.73;;;;;;;;;;4908564;29;20036;-71
2022/04/23 10:56:07;;;;;;;15.38;9.95;;;;;;;;;;4909043;29;20017;-71
2022/04/23 10:58:33;;;;;;;13.63;10.23;;;;;;;;;;4907375;29;20388;-71
2022/04/23 11:01:21;;;;;;;13.80;9.88;;;;;;;;;;4909049;29;20383;-71
2022/04/23 11:03:59;;;;;;;14.30;9.77;;;;;;;;;;4898010;29;20032;-70
2022/04/23 11:12:24;;;;;;;15.32;9.35;;;;;;;;;;4889539;29;20063;-70
2022/04/23 11:14:55;;;;;;;10.27;8.90;;;;;;;;;;4904060;29;20057;-70
2022/04/23 11:17:22;;;;;;;12.50;8.60;;;;;;;;;;4907754;29;20036;-70
2022/04/23 11:19:55;;;;;;;14.63;8.40;;;;;;;;;;4908315;29;20064;-71
2022/04/23 11:22:21;;;;;;;16.15;8.50;;;;;;;;;;4906927;29;20033;-71
2022/04/23 11:24:48;;;;;;;12.77;7.60;;;;;;;;;;4909472;29;20177;-70
2022/04/23 11:27:24;;;;;;;9.48;8.13;;;;;;;;;;4907310;29;20115;-70
2022/04/23 11:29:54;;;;;;;10.40;7.35;;;;;;;;;;4906203;29;20021;-71
2022/04/23 11:32:27;;;;;;;13.02;8.20;;;;;;;;;;4909213;29;20040;-70
2022/04/23 11:34:57;;;;;;;15.75;7.75;;;;;;;;;;4893640;29;20025;-71
2022/04/23 11:37:32;;;;;;;14.55;7.50;;;;;;;;;;4897585;29;20033;-72
2022/04/23 11:40:11;;;;;;;9.05;7.53;;;;;;;;;;4892520;29;20548;-71
2022/04/23 11:43:02;;;;;;;11.18;7.00;;;;;;;;;;4903648;29;20029;-81
2022/04/23 12:08:08;;;;;;;10.35;8.20;;;;;;;;;;5460406;23;20059;-82
2022/04/23 12:21:36;;;;;;;10.77;7.57;;;;;;;;;;4896591;29;20045;-81
2022/04/23 13:18:04;;;;;;;6.60;5.57;;;;;;;;;;5310945;23;20059;-80
2022/04/23 13:24:28;;;;;;;7.47;5.75;;;;;;;;;;4855199;29;20099;-84
2022/04/23 13:30:39;;;;;;;9.00;5.20;;;;;;;;;;4784173;29;20137;-80
2022/04/23 13:39:21;;;;;;;;;;;;;;;;;;4747047;30;20040;-83
2022/04/23 13:41:49;;;;;;;6.53;4.38;;;;;;;;;;4738487;30;19918;-82
2022/04/23 13:44:16;;;;;;;7.85;4.47;;;;;;;;;;4742218;30;20037;-84
2022/04/23 13:46:42;;;;;;;6.53;4.78;;;;;;;;;;4752645;30;20500;-86
2022/04/23 13:49:08;;;;;;;9.95;4.38;;;;;;;;;;4744641;30;20079;-84
2022/04/23 13:51:37;;;;;;;7.65;4.45;;;;;;;;;;4743495;30;20104;-82
2022/04/23 13:54:30;;;;;;;10.05;4.82;;;;;;;;;;4729757;30;20060;-80
2022/04/23 13:59:59;;;;;;;12.85;6.72;;;;;;;;;;4820059;29;20560;-79
2022/04/23 14:11:13;;;;;;;8.40;5.40;;;;;;;;;;4916862;29;20063;-79
2022/04/23 14:13:51;;;;;;;8.18;4.68;;;;;;;;;;4897375;29;20040;-78
2022/04/23 14:16:17;;;;;;;11.75;6.50;;;;;;;;;;4910819;29;20037;-80
2022/04/23 14:18:43;;;;;;;13.77;6.82;;;;;;;;;;4896368;29;20055;-81
2022/04/23 14:21:09;;;;;;;8.23;5.10;;;;;;;;;;4895870;29;20088;-84
2022/04/23 14:23:37;;;;;;;13.57;7.30;;;;;;;;;;4913960;29;20032;-82
2022/04/23 14:26:04;;;;;;;10.32;6.43;;;;;;;;;;4908710;29;20376;-78
2022/04/23 14:28:31;;;;;;;9.88;5.00;;;;;;;;;;4916889;29;20043;-83
2022/04/23 14:30:57;;;;;;;9.05;5.00;;;;;;;;;;4897898;29;20036;-84
2022/04/23 14:33:24;;;;;;;7.93;4.90;;;;;;;;;;4884205;29;20055;-79
2022/04/23 14:35:50;;;;;;;7.25;4.75;;;;;;;;;;4894106;29;20115;-80
2022/04/23 14:38:16;;;;;;;6.53;5.45;;;;;;;;;;4914207;29;20537;-82
2022/04/23 14:40:42;;;;;;;8.93;5.32;;;;;;;;;;4916945;29;20497;-83
2022/04/23 14:43:08;;;;;;;8.45;5.25;;;;;;;;;;4892271;29;20470;-77
2022/04/23 14:45:37;;;;;;;8.73;4.80;;;;;;;;;;4915284;29;20480;-77
2022/04/23 14:48:03;;;;;;;7.07;4.18;;;;;;;;;;4914536;29;20416;-82
2022/04/23 14:53:10;;;;;;;5.95;4.50;;;;;;;;;;4887461;29;20055;-81
2022/04/23 14:53:18;;;;;;;7.00;4.32;;;;;;;;;;4901412;29;20066;-75
2022/04/23 14:55:47;;;;;;;7.72;4.53;;;;;;;;;;4907372;29;20084;-86
2022/04/23 14:58:14;;;;;;;6.82;5.07;;;;;;;;;;4891420;29;20033;-69
2022/04/23 15:00:40;;;;;;;8.57;4.70;;;;;;;;;;4905571;29;20036;-85
2022/04/23 15:03:06;;;;;;;6.93;5.00;;;;;;;;;;4894452;29;20411;-77
2022/04/23 15:05:32;;;;;;;10.32;5.10;;;;;;;;;;4912222;29;20850;-70
2022/04/23 15:07:58;;;;;;;18.73;6.38;;;;;;;;;;4908228;29;20380;-70
2022/04/23 15:10:24;;;;;;;10.10;5.13;;;;;;;;;;4926178;29;20503;-70
2022/04/23 15:12:50;;;;;;;6.80;4.90;;;;;;;;;;4910153;29;20036;-70
2022/04/23 15:15:16;;;;;;;8.77;5.32;;;;;;;;;;4911702;29;20032;-71
2022/04/23 15:17:43;;;;;;;10.50;5.00;;;;;;;;;;4899173;29;20087;-69
2022/04/23 15:20:10;;;;;;;10.73;5.25;;;;;;;;;;4917268;29;20443;-70
2022/04/23 15:22:36;;;;;;;14.63;8.63;;;;;;;;;;4913678;29;20032;-69
2022/04/23 15:25:04;;;;;;;9.23;6.65;;;;;;;;;;4916570;29;20032;-87
2022/04/23 15:27:30;;;;;;;8.27;5.05;;;;;;;;;;4917644;29;20027;-70
2022/04/23 15:29:58;;;;;;;10.88;5.35;;;;;;;;;;4911788;29;20033;-69
2022/04/23 15:32:24;;;;;;;9.75;6.68;;;;;;;;;;4903391;29;20067;-70
2022/04/23 15:34:50;;;;;;;10.20;5.40;;;;;;;;;;4904511;29;20068;-71
2022/04/23 15:37:16;;;;;;;32.45;15.32;;;;;;;;;;4902211;29;20028;-69
2022/04/23 15:39:42;;;;;;;10.40;5.70;;;;;;;;;;4909544;29;20040;-73
2022/04/23 15:45:13;;;;;;;8.85;6.85;;;;;;;;;;4917544;29;20043;-87
2022/04/23 15:47:40;;;;;;;9.95;7.40;;;;;;;;;;4905013;29;20036;-82
2022/04/23 15:50:09;;;;;;;9.25;6.55;;;;;;;;;;4897963;29;20035;-86
2022/04/23 15:52:36;;;;;;;9.25;5.57;;;;;;;;;;4909628;29;20036;-81
2022/04/23 15:55:02;;;;;;;7.88;5.18;;;;;;;;;;4915914;29;20029;-82
2022/04/23 15:57:29;;;;;;;7.25;5.60;;;;;;;;;;4912792;29;20048;-85
2022/04/23 15:59:57;;;;;;;8.30;4.72;;;;;;;;;;4910950;29;20726;-85
2022/04/23 16:05:29;;;;;;;8.02;5.13;;;;;;;;;;4918804;29;20071;-78
2022/04/23 16:10:54;;;;;;;6.90;5.18;;;;;;;;;;4172506;26;758252;-84
2022/04/23 16:13:26;;;;;;;8.35;5.40;;;;;;;;;;4939308;29;20059;-72
2022/04/23 16:16:01;;;;;;;8.43;5.57;;;;;;;;;;4938878;29;20032;-85
2022/04/23 16:21:12;;;;;;;;;;;;;;;;;;5035663;23;20059;-78
2022/04/23 16:23:38;;;;;;;12.15;9.15;;;;;;;;;;4916590;29;19954;-74
2022/04/23 16:26:06;;;;;;;15.63;11.48;;;;;;;;;;4923124;29;20013;-75
2022/04/23 16:28:36;;;;;;;11.90;10.65;;;;;;;;;;4904176;29;20036;-77
2022/04/23 16:31:04;;;;;;;15.75;11.75;;;;;;;;;;4918158;29;20040;-74
2022/04/23 16:33:30;;;;;;;14.77;12.13;;;;;;;;;;4922839;29;20111;-75
2022/04/23 16:46:47;;;;;;;25.00;14.27;;;;;;;;;;5735958;23;20056;-74
2022/04/23 16:49:13;;;;;;;16.45;13.85;;;;;;;;;;4917723;29;20553;-74
2022/04/23 16:51:39;;;;;;;24.52;16.75;;;;;;;;;;4920134;29;20439;-74
2022/04/23 16:54:05;;;;;;;21.45;18.25;;;;;;;;;;4918769;29;20037;-74
2022/04/23 16:56:34;;;;;;;24.15;19.88;;;;;;;;;;4902803;29;20044;-75
2022/04/23 16:59:02;;;;;;;24.83;21.02;;;;;;;;;;4917141;29;20040;-74
2022/04/23 17:01:28;;;;;;;24.00;21.00;;;;;;;;;;4916623;29;20609;-74
2022/04/23 17:03:56;;;;;;;24.13;20.73;;;;;;;;;;4916830;29;20514;-73
2022/04/23 17:06:22;;;;;;;24.50;20.73;;;;;;;;;;4911418;29;20036;-74
2022/04/23 17:08:48;;;;;;;25.55;20.27;;;;;;;;;;4904338;29;20084;-72
2022/04/23 17:11:14;;;;;;;26.13;21.58;;;;;;;;;;4907078;29;20507;-71
2022/04/23 17:13:40;;;;;;;27.85;21.83;;;;;;;;;;4906955;29;20131;-72
2022/04/23 17:16:08;;;;;;;24.83;20.58;;;;;;;;;;4911544;29;20034;-76
2022/04/23 17:18:42;;;;;;;24.70;21.63;;;;;;;;;;4919514;29;20040;-77
2022/04/23 17:21:08;;;;;;;;;;;;;;;;;;4911688;29;20028;-76
2022/04/23 17:26:14;;;;;;;23.92;21.33;;;;;;;;;;5487861;23;20010;-72
2022/04/23 17:36:36;;;;;;;25.50;22.73;;;;;;;;;;5954270;23;20054;-76
2022/04/23 17:39:05;;;;;;;28.33;22.38;;;;;;;;;;4919174;29;20056;-70
2022/04/23 17:41:31;;;;;;;26.10;23.10;;;;;;;;;;4921536;29;20028;-70
2022/04/23 17:43:59;;;;;;;26.23;22.48;;;;;;;;;;4921094;29;20036;-70
2022/04/23 17:46:25;;;;;;;25.48;22.75;;;;;;;;;;4916222;29;20521;-70
2022/04/23 17:48:54;;;;;;;26.30;23.35;;;;;;;;;;4919801;29;20035;-72
2022/04/23 17:51:20;;;;;;;34.97;28.52;;;;;;;;;;4920012;29;20159;-70
2022/04/23 17:53:47;;;;;;;28.15;24.67;;;;;;;;;;4918155;29;20032;-70
2022/04/23 17:56:16;;;;;;;27.33;24.42;;;;;;;;;;4919377;29;20494;-70
2022/04/23 17:58:42;;;;;;;27.75;24.77;;;;;;;;;;4915385;29;20466;-70
2022/04/23 18:09:36;;;;;;;29.98;26.45;;;;;;;;;;5677510;23;20052;-79
2022/04/23 18:12:09;;;;;;;34.45;28.60;;;;;;;;;;4921222;29;20036;-76
2022/04/23 18:14:35;;;;;;;30.35;27.02;;;;;;;;;;4910791;29;20172;-76
2022/04/23 18:17:01;;;;;;;30.20;26.65;;;;;;;;;;4922220;29;20079;-69
2022/04/23 18:19:29;;;;;;;29.83;26.33;;;;;;;;;;4919511;29;20032;-75
2022/04/23 18:21:56;;;;;;;30.48;26.30;;;;;;;;;;4920315;29;20024;-76
2022/04/23 18:24:26;;;;;;;34.10;26.00;;;;;;;;;;4924344;29;20027;-78
2022/04/23 18:27:22;;;;;;;29.38;26.25;;;;;;;;;;4912357;29;20028;-79
2022/04/23 18:33:36;;;;;;;31.65;27.88;;;;;;;;;;4867657;29;20049;-79
2022/04/23 18:36:43;;;;;;;31.48;28.05;;;;;;;;;;4871906;29;20106;-79
2022/04/23 18:42:13;;;;;;;34.22;27.90;;;;;;;;;;4869348;29;20041;-71
2022/04/23 18:44:39;;;;;;;32.30;28.42;;;;;;;;;;4846751;29;20061;-73
2022/04/23 18:47:09;;;;;;;33.15;28.85;;;;;;;;;;4853077;29;20037;-78
2022/04/23 18:49:38;;;;;;;33.58;29.65;;;;;;;;;;4849925;29;20042;-73
2022/04/23 18:52:04;;;;;;;36.47;29.45;;;;;;;;;;4852556;29;20071;-78